Terminal Aerodrome Forecast
Issued by NWS Boston, MA

Home | Current Version | Previous Version | Text Only | Print | Product List | Glossary On
Versions: 1 2 3 4 5 6 7 8 9 10 11 12 13 14 15 16 17 18 19 20 21 22 23 24 25 26 27 28 29 30 31
000
FTUS41 KBOX 211738
TAFORH
TAF
KORH 211738Z 2118/2218 18009KT P6SM SCT015 BKN025
     FM212200 15004KT P6SM BKN020
     FM220000 15004KT P6SM BKN010
     FM220200 23005KT P6SM BKN010
     FM220600 27006KT P6SM BKN015
     FM220900 27008KT P6SM SCT050
     FM221400 28012G20KT P6SM BKN030
     FM221700 29013G25KT P6SM BKN040=

USA.gov is the U.S. government's official web portal to all federal, state and local government web resources and services.